sensor_id;sensor_type;location;lat;lon;timestamp;P1;durP1;ratioP1;P2;durP2;ratioP2
77022;SDS011;65952;51.440;-2.054;2023-04-01T00:00:17;5.97;;;3.15;;
77022;SDS011;65952;51.440;-2.054;2023-04-01T00:02:43;8.32;;;3.67;;
77022;SDS011;65952;51.440;-2.054;2023-04-01T00:05:09;8.18;;;3.50;;
77022;SDS011;65952;51.440;-2.054;2023-04-01T00:07:38;10.10;;;4.10;;
77022;SDS011;65952;51.440;-2.054;2023-04-01T00:10:06;6.68;;;3.97;;
77022;SDS011;65952;51.440;-2.054;2023-04-01T00:12:32;6.68;;;3.28;;
77022;SDS011;65952;51.440;-2.054;2023-04-01T00:14:57;6.60;;;3.25;;
77022;SDS011;65952;51.440;-2.054;2023-04-01T00:17:23;6.97;;;3.35;;
77022;SDS011;65952;51.440;-2.054;2023-04-01T00:19:49;8.43;;;3.47;;
77022;SDS011;65952;51.440;-2.054;2023-04-01T00:22:14;8.35;;;3.83;;
77022;SDS011;65952;51.440;-2.054;2023-04-01T00:24:40;8.10;;;3.58;;
77022;SDS011;65952;51.440;-2.054;2023-04-01T00:27:05;6.85;;;3.33;;
77022;SDS011;65952;51.440;-2.054;2023-04-01T00:29:32;8.10;;;4.05;;
77022;SDS011;65952;51.440;-2.054;2023-04-01T00:31:58;8.10;;;3.45;;
77022;SDS011;65952;51.440;-2.054;2023-04-01T00:34:23;5.95;;;3.65;;
77022;SDS011;65952;51.440;-2.054;2023-04-01T00:36:49;10.38;;;4.10;;
77022;SDS011;65952;51.440;-2.054;2023-04-01T00:39:15;6.90;;;3.50;;
77022;SDS011;65952;51.440;-2.054;2023-04-01T00:41:41;8.20;;;3.42;;
77022;SDS011;65952;51.440;-2.054;2023-04-01T00:44:20;7.78;;;3.58;;
77022;SDS011;65952;51.440;-2.054;2023-04-01T00:46:51;8.23;;;3.75;;
77022;SDS011;65952;51.440;-2.054;2023-04-01T00:49:21;10.48;;;4.65;;
77022;SDS011;65952;51.440;-2.054;2023-04-01T00:51:50;9.15;;;3.85;;
77022;SDS011;65952;51.440;-2.054;2023-04-01T00:54:18;7.80;;;3.80;;
77022;SDS011;65952;51.440;-2.054;2023-04-01T00:56:50;8.77;;;4.05;;
77022;SDS011;65952;51.440;-2.054;2023-04-01T00:59:31;9.75;;;3.60;;
77022;SDS011;65952;51.440;-2.054;2023-04-01T01:02:02;7.78;;;3.67;;
77022;SDS011;65952;51.440;-2.054;2023-04-01T01:04:32;8.63;;;3.60;;
77022;SDS011;65952;51.440;-2.054;2023-04-01T01:15:36;7.80;;;3.70;;
77022;SDS011;65952;51.440;-2.054;2023-04-01T01:18:33;8.00;;;4.13;;
77022;SDS011;65952;51.440;-2.054;2023-04-01T01:21:28;9.18;;;3.85;;
77022;SDS011;65952;51.440;-2.054;2023-04-01T01:26:53;8.95;;;3.92;;
77022;SDS011;65952;51.440;-2.054;2023-04-01T01:37:10;11.93;;;4.15;;
77022;SDS011;65952;51.440;-2.054;2023-04-01T01:39:39;11.02;;;4.18;;
77022;SDS011;65952;51.440;-2.054;2023-04-01T01:42:08;11.05;;;3.58;;
77022;SDS011;65952;51.440;-2.054;2023-04-01T01:44:36;7.65;;;3.63;;
77022;SDS011;65952;51.440;-2.054;2023-04-01T01:47:03;7.95;;;3.75;;
77022;SDS011;65952;51.440;-2.054;2023-04-01T01:49:28;8.30;;;3.33;;
77022;SDS011;65952;51.440;-2.054;2023-04-01T01:51:57;12.43;;;3.90;;
77022;SDS011;65952;51.440;-2.054;2023-04-01T01:54:22;10.55;;;3.60;;
77022;SDS011;65952;51.440;-2.054;2023-04-01T01:56:49;11.45;;;4.20;;
77022;SDS011;65952;51.440;-2.054;2023-04-01T01:59:19;8.48;;;3.30;;
77022;SDS011;65952;51.440;-2.054;2023-04-01T02:01:48;8.68;;;3.80;;
77022;SDS011;65952;51.440;-2.054;2023-04-01T02:04:16;7.80;;;3.10;;
77022;SDS011;65952;51.440;-2.054;2023-04-01T02:06:53;7.20;;;3.17;;
77022;SDS011;65952;51.440;-2.054;2023-04-01T02:09:28;9.85;;;3.45;;
77022;SDS011;65952;51.440;-2.054;2023-04-01T02:11:59;7.18;;;3.10;;
77022;SDS011;65952;51.440;-2.054;2023-04-01T02:17:09;6.25;;;2.80;;
77022;SDS011;65952;51.440;-2.054;2023-04-01T02:19:40;6.70;;;2.88;;
77022;SDS011;65952;51.440;-2.054;2023-04-01T02:22:11;6.35;;;3.05;;
77022;SDS011;65952;51.440;-2.054;2023-04-01T02:24:41;11.02;;;4.38;;
77022;SDS011;65952;51.440;-2.054;2023-04-01T02:27:09;7.20;;;3.35;;
77022;SDS011;65952;51.440;-2.054;2023-04-01T02:29:35;6.55;;;3.08;;
77022;SDS011;65952;51.440;-2.054;2023-04-01T02:32:00;6.45;;;3.00;;
77022;SDS011;65952;51.440;-2.054;2023-04-01T02:34:27;5.97;;;3.20;;
77022;SDS011;65952;51.440;-2.054;2023-04-01T02:36:53;6.18;;;3.22;;
77022;SDS011;65952;51.440;-2.054;2023-04-01T02:39:21;8.23;;;3.13;;
77022;SDS011;65952;51.440;-2.054;2023-04-01T02:41:47;7.80;;;3.30;;
77022;SDS011;65952;51.440;-2.054;2023-04-01T02:44:14;6.13;;;3.22;;
77022;SDS011;65952;51.440;-2.054;2023-04-01T02:46:41;7.45;;;3.45;;
77022;SDS011;65952;51.440;-2.054;2023-04-01T02:49:07;6.18;;;3.45;;
77022;SDS011;65952;51.440;-2.054;2023-04-01T02:51:33;7.10;;;3.30;;
77022;SDS011;65952;51.440;-2.054;2023-04-01T02:53:59;6.40;;;3.53;;
77022;SDS011;65952;51.440;-2.054;2023-04-01T02:56:24;11.25;;;3.70;;
77022;SDS011;65952;51.440;-2.054;2023-04-01T02:58:51;7.65;;;3.58;;
77022;SDS011;65952;51.440;-2.054;2023-04-01T03:01:16;7.05;;;3.40;;
77022;SDS011;65952;51.440;-2.054;2023-04-01T03:03:42;7.80;;;3.50;;
77022;SDS011;65952;51.440;-2.054;2023-04-01T03:06:08;9.73;;;3.75;;
77022;SDS011;65952;51.440;-2.054;2023-04-01T03:08:34;9.25;;;3.40;;
77022;SDS011;65952;51.440;-2.054;2023-04-01T03:11:00;7.30;;;3.47;;
77022;SDS011;65952;51.440;-2.054;2023-04-01T03:13:26;7.78;;;4.15;;
77022;SDS011;65952;51.440;-2.054;2023-04-01T03:15:51;8.65;;;3.42;;
77022;SDS011;65952;51.440;-2.054;2023-04-01T03:18:18;10.07;;;3.78;;
77022;SDS011;65952;51.440;-2.054;2023-04-01T03:20:43;6.63;;;3.20;;
77022;SDS011;65952;51.440;-2.054;2023-04-01T03:23:09;6.15;;;3.25;;
77022;SDS011;65952;51.440;-2.054;2023-04-01T03:25:34;8.40;;;3.90;;
77022;SDS011;65952;51.440;-2.054;2023-04-01T03:28:00;11.43;;;3.72;;
77022;SDS011;65952;51.440;-2.054;2023-04-01T03:30:26;12.05;;;4.30;;
77022;SDS011;65952;51.440;-2.054;2023-04-01T03:32:52;8.73;;;3.85;;
77022;SDS011;65952;51.440;-2.054;2023-04-01T03:35:17;6.78;;;3.83;;
77022;SDS011;65952;51.440;-2.054;2023-04-01T03:37:43;7.70;;;3.60;;
77022;SDS011;65952;51.440;-2.054;2023-04-01T03:40:08;8.07;;;4.00;;
77022;SDS011;65952;51.440;-2.054;2023-04-01T03:42:35;8.13;;;4.25;;
77022;SDS011;65952;51.440;-2.054;2023-04-01T03:45:00;8.95;;;4.38;;
77022;SDS011;65952;51.440;-2.054;2023-04-01T03:47:26;7.47;;;3.83;;
77022;SDS011;65952;51.440;-2.054;2023-04-01T03:49:51;8.45;;;4.00;;
77022;SDS011;65952;51.440;-2.054;2023-04-01T03:52:17;11.65;;;4.90;;
77022;SDS011;65952;51.440;-2.054;2023-04-01T03:54:42;8.60;;;4.53;;
77022;SDS011;65952;51.440;-2.054;2023-04-01T03:57:08;11.57;;;4.00;;
77022;SDS011;65952;51.440;-2.054;2023-04-01T03:59:36;10.73;;;3.78;;
77022;SDS011;65952;51.440;-2.054;2023-04-01T04:02:01;9.88;;;3.95;;
77022;SDS011;65952;51.440;-2.054;2023-04-01T04:04:27;8.80;;;4.07;;
77022;SDS011;65952;51.440;-2.054;2023-04-01T04:06:52;10.25;;;4.05;;
77022;SDS011;65952;51.440;-2.054;2023-04-01T04:09:18;11.43;;;3.85;;
77022;SDS011;65952;51.440;-2.054;2023-04-01T04:11:43;8.20;;;3.97;;
77022;SDS011;65952;51.440;-2.054;2023-04-01T04:14:08;7.35;;;3.92;;
77022;SDS011;65952;51.440;-2.054;2023-04-01T04:16:34;9.60;;;3.80;;
77022;SDS011;65952;51.440;-2.054;2023-04-01T04:19:04;9.35;;;3.97;;
77022;SDS011;65952;51.440;-2.054;2023-04-01T04:21:30;8.70;;;3.78;;
77022;SDS011;65952;51.440;-2.054;2023-04-01T04:23:55;8.43;;;3.80;;
77022;SDS011;65952;51.440;-2.054;2023-04-01T04:26:20;8.63;;;3.47;;
77022;SDS011;65952;51.440;-2.054;2023-04-01T04:28:46;7.78;;;4.05;;
77022;SDS011;65952;51.440;-2.054;2023-04-01T04:31:17;7.30;;;3.45;;
77022;SDS011;65952;51.440;-2.054;2023-04-01T04:33:45;8.95;;;5.68;;
77022;SDS011;65952;51.440;-2.054;2023-04-01T04:36:10;9.20;;;4.05;;
77022;SDS011;65952;51.440;-2.054;2023-04-01T04:38:36;7.32;;;3.95;;
77022;SDS011;65952;51.440;-2.054;2023-04-01T04:41:01;10.77;;;4.00;;
77022;SDS011;65952;51.440;-2.054;2023-04-01T04:43:27;9.90;;;4.20;;
77022;SDS011;65952;51.440;-2.054;2023-04-01T04:45:52;9.95;;;3.95;;
77022;SDS011;65952;51.440;-2.054;2023-04-01T04:48:17;9.13;;;4.32;;
77022;SDS011;65952;51.440;-2.054;2023-04-01T04:50:45;7.15;;;4.00;;
77022;SDS011;65952;51.440;-2.054;2023-04-01T04:53:15;7.90;;;3.80;;
77022;SDS011;65952;51.440;-2.054;2023-04-01T04:55:44;8.05;;;3.80;;
77022;SDS011;65952;51.440;-2.054;2023-04-01T04:58:12;9.68;;;3.70;;
77022;SDS011;65952;51.440;-2.054;2023-04-01T05:00:37;7.55;;;3.45;;
77022;SDS011;65952;51.440;-2.054;2023-04-01T05:03:03;6.60;;;3.20;;
77022;SDS011;65952;51.440;-2.054;2023-04-01T05:05:28;12.00;;;4.03;;
77022;SDS011;65952;51.440;-2.054;2023-04-01T05:07:53;8.02;;;4.40;;
77022;SDS011;65952;51.440;-2.054;2023-04-01T05:10:19;9.18;;;3.90;;
77022;SDS011;65952;51.440;-2.054;2023-04-01T05:12:45;13.05;;;3.88;;
77022;SDS011;65952;51.440;-2.054;2023-04-01T05:15:11;6.68;;;3.40;;
77022;SDS011;65952;51.440;-2.054;2023-04-01T05:17:36;7.72;;;3.65;;
77022;SDS011;65952;51.440;-2.054;2023-04-01T05:20:01;6.75;;;3.38;;
77022;SDS011;65952;51.440;-2.054;2023-04-01T05:22:27;7.25;;;3.22;;
77022;SDS011;65952;51.440;-2.054;2023-04-01T05:24:53;5.40;;;2.65;;
77022;SDS011;65952;51.440;-2.054;2023-04-01T05:27:18;5.50;;;2.90;;
77022;SDS011;65952;51.440;-2.054;2023-04-01T05:29:43;6.57;;;2.80;;
77022;SDS011;65952;51.440;-2.054;2023-04-01T05:32:09;6.43;;;2.90;;
77022;SDS011;65952;51.440;-2.054;2023-04-01T05:34:34;7.13;;;2.85;;
77022;SDS011;65952;51.440;-2.054;2023-04-01T05:37:00;6.07;;;2.90;;
77022;SDS011;65952;51.440;-2.054;2023-04-01T05:39:25;9.38;;;3.15;;
77022;SDS011;65952;51.440;-2.054;2023-04-01T05:41:51;6.68;;;2.80;;
77022;SDS011;65952;51.440;-2.054;2023-04-01T05:44:16;6.32;;;2.53;;
77022;SDS011;65952;51.440;-2.054;2023-04-01T05:46:42;3.95;;;2.45;;
77022;SDS011;65952;51.440;-2.054;2023-04-01T05:49:08;4.63;;;2.50;;
77022;SDS011;65952;51.440;-2.054;2023-04-01T05:51:33;7.35;;;2.90;;
77022;SDS011;65952;51.440;-2.054;2023-04-01T05:53:58;5.53;;;2.35;;
77022;SDS011;65952;51.440;-2.054;2023-04-01T05:56:24;6.75;;;2.40;;
77022;SDS011;65952;51.440;-2.054;2023-04-01T05:58:53;3.25;;;1.80;;
77022;SDS011;65952;51.440;-2.054;2023-04-01T06:01:19;4.43;;;2.00;;
77022;SDS011;65952;51.440;-2.054;2023-04-01T06:03:44;4.53;;;2.17;;
77022;SDS011;65952;51.440;-2.054;2023-04-01T06:06:18;5.80;;;2.03;;
77022;SDS011;65952;51.440;-2.054;2023-04-01T06:08:48;6.90;;;2.20;;
77022;SDS011;65952;51.440;-2.054;2023-04-01T06:14:39;4.57;;;2.00;;
77022;SDS011;65952;51.440;-2.054;2023-04-01T06:17:50;4.57;;;2.30;;
77022;SDS011;65952;51.440;-2.054;2023-04-01T06:36:41;6.38;;;2.50;;
77022;SDS011;65952;51.440;-2.054;2023-04-01T06:39:19;5.93;;;2.47;;
77022;SDS011;65952;51.440;-2.054;2023-04-01T06:45:30;4.95;;;2.70;;
77022;SDS011;65952;51.440;-2.054;2023-04-01T06:55:47;6.85;;;2.63;;
77022;SDS011;65952;51.440;-2.054;2023-04-01T06:58:37;5.40;;;2.47;;
77022;SDS011;65952;51.440;-2.054;2023-04-01T07:01:14;4.03;;;2.28;;
77022;SDS011;65952;51.440;-2.054;2023-04-01T07:04:02;7.00;;;2.45;;
77022;SDS011;65952;51.440;-2.054;2023-04-01T07:06:35;5.00;;;2.67;;
77022;SDS011;65952;51.440;-2.054;2023-04-01T07:09:16;6.50;;;2.38;;
77022;SDS011;65952;51.440;-2.054;2023-04-01T07:11:45;6.53;;;2.67;;
77022;SDS011;65952;51.440;-2.054;2023-04-01T07:14:25;5.32;;;2.58;;
77022;SDS011;65952;51.440;-2.054;2023-04-01T07:16:58;5.70;;;2.20;;
77022;SDS011;65952;51.440;-2.054;2023-04-01T07:19:47;5.00;;;2.63;;
77022;SDS011;65952;51.440;-2.054;2023-04-01T07:24:42;8.18;;;2.80;;
77022;SDS011;65952;51.440;-2.054;2023-04-01T07:27:11;4.80;;;2.47;;
77022;SDS011;65952;51.440;-2.054;2023-04-01T07:29:38;5.05;;;2.60;;
77022;SDS011;65952;51.440;-2.054;2023-04-01T07:37:24;6.07;;;2.53;;
77022;SDS011;65952;51.440;-2.054;2023-04-01T07:53:25;4.90;;;1.77;;
77022;SDS011;65952;51.440;-2.054;2023-04-01T08:03:52;3.03;;;1.50;;
77022;SDS011;65952;51.440;-2.054;2023-04-01T08:16:46;3.90;;;1.60;;
77022;SDS011;65952;51.440;-2.054;2023-04-01T08:22:16;2.67;;;1.48;;
77022;SDS011;65952;51.440;-2.054;2023-04-01T08:24:48;3.13;;;1.70;;
77022;SDS011;65952;51.440;-2.054;2023-04-01T08:27:17;3.03;;;1.58;;
77022;SDS011;65952;51.440;-2.054;2023-04-01T08:29:58;2.85;;;1.60;;
77022;SDS011;65952;51.440;-2.054;2023-04-01T08:32:30;2.58;;;1.40;;
77022;SDS011;65952;51.440;-2.054;2023-04-01T08:35:08;2.65;;;1.55;;
77022;SDS011;65952;51.440;-2.054;2023-04-01T08:37:41;2.92;;;1.55;;
77022;SDS011;65952;51.440;-2.054;2023-04-01T08:43:04;2.42;;;1.40;;
77022;SDS011;65952;51.440;-2.054;2023-04-01T08:49:14;2.80;;;1.50;;
77022;SDS011;65952;51.440;-2.054;2023-04-01T08:57:38;8.15;;;3.78;;
77022;SDS011;65952;51.440;-2.054;2023-04-01T09:03:00;11.93;;;5.25;;
77022;SDS011;65952;51.440;-2.054;2023-04-01T09:05:43;11.85;;;5.45;;
77022;SDS011;65952;51.440;-2.054;2023-04-01T09:11:30;10.90;;;5.03;;
77022;SDS011;65952;51.440;-2.054;2023-04-01T09:14:10;12.45;;;6.25;;
77022;SDS011;65952;51.440;-2.054;2023-04-01T09:28:20;16.23;;;5.95;;
77022;SDS011;65952;51.440;-2.054;2023-04-01T09:39:37;11.02;;;5.43;;
77022;SDS011;65952;51.440;-2.054;2023-04-01T09:50:46;7.40;;;3.70;;
77022;SDS011;65952;51.440;-2.054;2023-04-01T10:17:44;5.68;;;2.90;;
77022;SDS011;65952;51.440;-2.054;2023-04-01T10:20:17;7.55;;;3.22;;
77022;SDS011;65952;51.440;-2.054;2023-04-01T10:23:02;7.25;;;3.40;;
77022;SDS011;65952;51.440;-2.054;2023-04-01T10:28:28;6.50;;;3.10;;
77022;SDS011;65952;51.440;-2.054;2023-04-01T10:34:05;6.43;;;3.00;;
77022;SDS011;65952;51.440;-2.054;2023-04-01T10:42:49;5.07;;;2.53;;
77022;SDS011;65952;51.440;-2.054;2023-04-01T10:49:04;7.32;;;3.00;;
77022;SDS011;65952;51.440;-2.054;2023-04-01T10:54:07;5.65;;;2.80;;
77022;SDS011;65952;51.440;-2.054;2023-04-01T10:57:02;6.47;;;3.33;;
77022;SDS011;65952;51.440;-2.054;2023-04-01T11:29:45;6.47;;;3.05;;
77022;SDS011;65952;51.440;-2.054;2023-04-01T11:40:31;5.85;;;2.90;;
77022;SDS011;65952;51.440;-2.054;2023-04-01T11:45:50;7.32;;;2.78;;
77022;SDS011;65952;51.440;-2.054;2023-04-01T12:27:11;12.45;;;5.50;;
77022;SDS011;65952;51.440;-2.054;2023-04-01T12:37:50;13.95;;;6.82;;
77022;SDS011;65952;51.440;-2.054;2023-04-01T12:48:44;14.98;;;6.25;;
77022;SDS011;65952;51.440;-2.054;2023-04-01T12:51:21;12.35;;;5.97;;
77022;SDS011;65952;51.440;-2.054;2023-04-01T12:59:22;14.10;;;6.45;;
77022;SDS011;65952;51.440;-2.054;2023-04-01T13:02:07;13.13;;;6.20;;
77022;SDS011;65952;51.440;-2.054;2023-04-01T13:04:48;18.50;;;7.72;;
77022;SDS011;65952;51.440;-2.054;2023-04-01T13:32:21;8.50;;;4.35;;
77022;SDS011;65952;51.440;-2.054;2023-04-01T13:40:33;8.65;;;4.25;;
77022;SDS011;65952;51.440;-2.054;2023-04-01T13:43:15;7.65;;;3.95;;
77022;SDS011;65952;51.440;-2.054;2023-04-01T13:59:17;7.25;;;3.70;;
77022;SDS011;65952;51.440;-2.054;2023-04-01T14:10:43;8.73;;;3.90;;
77022;SDS011;65952;51.440;-2.054;2023-04-01T14:24:20;6.25;;;3.35;;
77022;SDS011;65952;51.440;-2.054;2023-04-01T14:40:22;7.05;;;3.10;;
77022;SDS011;65952;51.440;-2.054;2023-04-01T14:47:55;5.03;;;2.42;;
77022;SDS011;65952;51.440;-2.054;2023-04-01T14:50:26;4.88;;;2.70;;
77022;SDS011;65952;51.440;-2.054;2023-04-01T14:58:18;5.75;;;2.47;;
77022;SDS011;65952;51.440;-2.054;2023-04-01T15:03:32;5.32;;;2.75;;
77022;SDS011;65952;51.440;-2.054;2023-04-01T15:14:28;4.88;;;2.47;;
77022;SDS011;65952;51.440;-2.054;2023-04-01T15:22:57;7.07;;;2.40;;
77022;SDS011;65952;51.440;-2.054;2023-04-01T15:28:04;5.30;;;2.70;;
77022;SDS011;65952;51.440;-2.054;2023-04-01T15:45:00;6.53;;;2.80;;
77022;SDS011;65952;51.440;-2.054;2023-04-01T15:47:44;5.43;;;2.55;;
77022;SDS011;65952;51.440;-2.054;2023-04-01T15:55:59;5.80;;;2.67;;
77022;SDS011;65952;51.440;-2.054;2023-04-01T15:58:47;5.47;;;2.65;;
77022;SDS011;65952;51.440;-2.054;2023-04-01T16:01:46;6.07;;;2.80;;
77022;SDS011;65952;51.440;-2.054;2023-04-01T16:07:28;5.60;;;2.58;;
77022;SDS011;65952;51.440;-2.054;2023-04-01T16:15:50;4.85;;;2.53;;
77022;SDS011;65952;51.440;-2.054;2023-04-01T16:20:57;5.53;;;2.60;;
77022;SDS011;65952;51.440;-2.054;2023-04-01T16:31:49;4.75;;;2.53;;
77022;SDS011;65952;51.440;-2.054;2023-04-01T16:34:36;3.83;;;2.20;;
77022;SDS011;65952;51.440;-2.054;2023-04-01T16:37:10;4.28;;;2.30;;
77022;SDS011;65952;51.440;-2.054;2023-04-01T16:40:02;5.65;;;2.33;;
77022;SDS011;65952;51.440;-2.054;2023-04-01T16:47:50;4.68;;;2.15;;
77022;SDS011;65952;51.440;-2.054;2023-04-01T16:50:25;4.18;;;2.10;;
77022;SDS011;65952;51.440;-2.054;2023-04-01T16:53:41;5.15;;;2.45;;
77022;SDS011;65952;51.440;-2.054;2023-04-01T16:58:57;4.10;;;2.00;;
77022;SDS011;65952;51.440;-2.054;2023-04-01T17:04:30;3.90;;;1.90;;
77022;SDS011;65952;51.440;-2.054;2023-04-01T17:18:11;4.80;;;2.20;;
77022;SDS011;65952;51.440;-2.054;2023-04-01T17:20:55;4.50;;;2.42;;
77022;SDS011;65952;51.440;-2.054;2023-04-01T17:26:11;3.80;;;2.28;;
77022;SDS011;65952;51.440;-2.054;2023-04-01T17:39:21;3.95;;;2.30;;
77022;SDS011;65952;51.440;-2.054;2023-04-01T17:42:06;3.60;;;2.10;;
77022;SDS011;65952;51.440;-2.054;2023-04-01T17:49:47;4.43;;;2.17;;
77022;SDS011;65952;51.440;-2.054;2023-04-01T17:55:18;4.78;;;2.05;;
77022;SDS011;65952;51.440;-2.054;2023-04-01T18:06:36;3.60;;;1.95;;
77022;SDS011;65952;51.440;-2.054;2023-04-01T18:09:40;3.95;;;1.85;;
77022;SDS011;65952;51.440;-2.054;2023-04-01T18:12:14;3.10;;;1.80;;
77022;SDS011;65952;51.440;-2.054;2023-04-01T18:18:03;3.95;;;1.90;;
77022;SDS011;65952;51.440;-2.054;2023-04-01T18:25:46;4.47;;;2.10;;
77022;SDS011;65952;51.440;-2.054;2023-04-01T18:28:19;4.20;;;2.13;;
77022;SDS011;65952;51.440;-2.054;2023-04-01T18:33:31;4.70;;;2.10;;
77022;SDS011;65952;51.440;-2.054;2023-04-01T18:36:26;3.78;;;1.90;;
77022;SDS011;65952;51.440;-2.054;2023-04-01T18:47:48;3.47;;;1.80;;
77022;SDS011;65952;51.440;-2.054;2023-04-01T18:50:24;3.42;;;1.92;;
77022;SDS011;65952;51.440;-2.054;2023-04-01T18:56:00;6.40;;;2.45;;
77022;SDS011;65952;51.440;-2.054;2023-04-01T19:01:16;3.42;;;1.92;;
77022;SDS011;65952;51.440;-2.054;2023-04-01T19:04:00;3.65;;;1.90;;
77022;SDS011;65952;51.440;-2.054;2023-04-01T19:09:54;3.60;;;1.80;;
77022;SDS011;65952;51.440;-2.054;2023-04-01T19:21:23;3.72;;;1.70;;
77022;SDS011;65952;51.440;-2.054;2023-04-01T19:27:01;4.28;;;1.60;;
77022;SDS011;65952;51.440;-2.054;2023-04-01T19:32:40;3.58;;;1.88;;
77022;SDS011;65952;51.440;-2.054;2023-04-01T19:38:40;5.03;;;1.90;;
77022;SDS011;65952;51.440;-2.054;2023-04-01T19:41:32;3.22;;;1.70;;
77022;SDS011;65952;51.440;-2.054;2023-04-01T19:44:17;4.68;;;1.90;;
77022;SDS011;65952;51.440;-2.054;2023-04-01T19:49:57;4.53;;;1.83;;
77022;SDS011;65952;51.440;-2.054;2023-04-01T19:52:41;4.63;;;1.80;;
77022;SDS011;65952;51.440;-2.054;2023-04-01T19:58:05;4.65;;;1.90;;
77022;SDS011;65952;51.440;-2.054;2023-04-01T20:00:50;4.07;;;2.15;;
77022;SDS011;65952;51.440;-2.054;2023-04-01T20:17:13;3.75;;;1.92;;
77022;SDS011;65952;51.440;-2.054;2023-04-01T20:19:45;4.00;;;2.00;;
77022;SDS011;65952;51.440;-2.054;2023-04-01T20:22:23;3.80;;;1.90;;
77022;SDS011;65952;51.440;-2.054;2023-04-01T20:24:56;4.53;;;1.90;;
77022;SDS011;65952;51.440;-2.054;2023-04-01T20:27:27;5.18;;;2.10;;
77022;SDS011;65952;51.440;-2.054;2023-04-01T20:44:12;3.53;;;1.90;;
77022;SDS011;65952;51.440;-2.054;2023-04-01T20:57:24;3.08;;;1.80;;
77022;SDS011;65952;51.440;-2.054;2023-04-01T21:24:41;4.22;;;2.00;;
77022;SDS011;65952;51.440;-2.054;2023-04-01T21:35:59;3.70;;;2.00;;
77022;SDS011;65952;51.440;-2.054;2023-04-01T21:38:55;3.53;;;1.90;;
77022;SDS011;65952;51.440;-2.054;2023-04-01T21:47:17;4.70;;;2.10;;
77022;SDS011;65952;51.440;-2.054;2023-04-01T22:01:45;5.10;;;2.97;;
77022;SDS011;65952;51.440;-2.054;2023-04-01T22:06:57;5.00;;;2.70;;
77022;SDS011;65952;51.440;-2.054;2023-04-01T22:09:31;5.35;;;2.70;;
77022;SDS011;65952;51.440;-2.054;2023-04-01T22:12:03;5.70;;;2.95;;
77022;SDS011;65952;51.440;-2.054;2023-04-01T22:19:45;6.00;;;3.55;;
77022;SDS011;65952;51.440;-2.054;2023-04-01T22:28:16;6.20;;;3.22;;
77022;SDS011;65952;51.440;-2.054;2023-04-01T22:30:52;6.18;;;4.10;;
77022;SDS011;65952;51.440;-2.054;2023-04-01T22:33:41;7.13;;;3.55;;
77022;SDS011;65952;51.440;-2.054;2023-04-01T22:38:41;7.10;;;4.10;;
77022;SDS011;65952;51.440;-2.054;2023-04-01T22:41:27;7.40;;;3.78;;
77022;SDS011;65952;51.440;-2.054;2023-04-01T22:47:04;7.85;;;3.90;;
77022;SDS011;65952;51.440;-2.054;2023-04-01T22:49:32;7.85;;;4.40;;
77022;SDS011;65952;51.440;-2.054;2023-04-01T22:52:05;7.00;;;3.90;;
77022;SDS011;65952;51.440;-2.054;2023-04-01T22:54:43;7.15;;;4.30;;
77022;SDS011;65952;51.440;-2.054;2023-04-01T23:02:47;7.25;;;4.40;;
77022;SDS011;65952;51.440;-2.054;2023-04-01T23:05:39;8.57;;;4.25;;
77022;SDS011;65952;51.440;-2.054;2023-04-01T23:10:58;6.65;;;4.13;;
77022;SDS011;65952;51.440;-2.054;2023-04-01T23:13:30;6.80;;;3.92;;
77022;SDS011;65952;51.440;-2.054;2023-04-01T23:16:00;6.45;;;4.10;;
77022;SDS011;65952;51.440;-2.054;2023-04-01T23:18:35;6.85;;;4.07;;
77022;SDS011;65952;51.440;-2.054;2023-04-01T23:31:26;9.45;;;4.50;;
77022;SDS011;65952;51.440;-2.054;2023-04-01T23:34:01;6.88;;;4.22;;
77022;SDS011;65952;51.440;-2.054;2023-04-01T23:36:37;8.23;;;3.75;;
77022;SDS011;65952;51.440;-2.054;2023-04-01T23:39:11;6.75;;;3.72;;
77022;SDS011;65952;51.440;-2.054;2023-04-01T23:42:19;7.93;;;4.55;;
77022;SDS011;65952;51.440;-2.054;2023-04-01T23:44:50;8.25;;;4.30;;
77022;SDS011;65952;51.440;-2.054;2023-04-01T23:47:20;8.82;;;4.03;;
77022;SDS011;65952;51.440;-2.054;2023-04-01T23:49:50;8.25;;;4.15;;
77022;SDS011;65952;51.440;-2.054;2023-04-01T23:52:40;9.02;;;3.90;;
77022;SDS011;65952;51.440;-2.054;2023-04-01T23:57:36;7.22;;;4.30;;
